Time;durP1;ratioP1;P1;durP2;ratioP2;P2;SDS_P1;SDS_P2;PMS_P1;PMS_P2;Temp;Humidity;BMP_temperature;BMP_pressure;BME280_temperature;BME280_humidity;BME280_pressure;Samples;Min_cycle;Max_cycle;Signal;HPM_P1;HPM_P2
2021/10/22 00:00:08;;;;;;;1999.90;999.90;;;;;;;8.15;100.00;95837.38;5046726;28;20310;-68
2021/10/22 00:02:37;;;;;;;1999.90;999.90;;;;;;;8.09;100.00;95837.66;5046672;28;20228;-67
2021/10/22 00:05:05;;;;;;;1999.90;999.90;;;;;;;8.13;100.00;95830.91;5046384;28;20295;-67
2021/10/22 00:07:32;;;;;;;1999.90;999.90;;;;;;;8.14;100.00;95835.81;5046448;28;20700;-67
2021/10/22 00:09:59;;;;;;;1999.90;999.90;;;;;;;8.16;100.00;95830.38;5046635;28;20197;-67
2021/10/22 00:12:26;;;;;;;1999.90;999.90;;;;;;;8.13;100.00;95834.25;5046642;28;20251;-67
2021/10/22 00:14:53;;;;;;;1999.90;999.90;;;;;;;8.08;100.00;95836.09;5046297;28;20205;-68
2021/10/22 00:17:21;;;;;;;1999.90;999.90;;;;;;;8.12;100.00;95837.13;5038448;28;20190;-67
2021/10/22 00:19:50;;;;;;;1999.90;999.90;;;;;;;8.18;100.00;95830.88;5037476;28;20262;-68
2021/10/22 00:22:17;;;;;;;1999.90;999.90;;;;;;;7.95;100.00;95842.66;5046096;28;20229;-68
2021/10/22 00:24:44;;;;;;;1999.90;999.90;;;;;;;8.01;100.00;95840.81;5046209;28;20253;-68
2021/10/22 00:27:12;;;;;;;1999.90;999.90;;;;;;;7.89;100.00;95832.59;5048565;28;20204;-67
2021/10/22 00:29:39;;;;;;;1999.90;999.90;;;;;;;7.82;100.00;95845.06;5049426;28;20237;-67
2021/10/22 00:32:06;;;;;;;1999.90;999.90;;;;;;;7.68;100.00;95837.88;5049535;28;20254;-67
2021/10/22 00:34:33;;;;;;;1999.90;999.90;;;;;;;7.62;100.00;95841.53;5049591;28;20196;-68
2021/10/22 00:37:03;;;;;;;1999.90;999.90;;;;;;;7.60;100.00;95850.59;5049483;28;20197;-68
2021/10/22 00:39:30;;;;;;;1999.90;999.90;;;;;;;7.59;100.00;95849.81;5049743;28;20576;-68
2021/10/22 00:41:57;;;;;;;1999.90;999.90;;;;;;;7.43;100.00;95858.66;5049515;28;20208;-68
2021/10/22 00:44:24;;;;;;;1999.90;999.90;;;;;;;7.45;100.00;95845.47;5049317;28;20254;-68
2021/10/22 00:46:55;;;;;;;1999.90;999.90;;;;;;;7.46;100.00;95849.63;5049648;28;20197;-68
2021/10/22 00:49:23;;;;;;;1999.90;999.90;;;;;;;7.30;100.00;95854.84;5049342;28;20246;-68
2021/10/22 00:51:51;;;;;;;1999.90;999.90;;;;;;;7.25;100.00;95852.25;5049203;28;20201;-69
2021/10/22 00:54:19;;;;;;;1999.90;999.90;;;;;;;7.12;100.00;95857.22;5049224;28;20278;-68
2021/10/22 00:56:50;;;;;;;1999.90;999.90;;;;;;;6.99;100.00;95852.56;5049117;28;20205;-69
2021/10/22 00:59:17;;;;;;;1999.90;999.90;;;;;;;7.10;100.00;95851.53;5049396;28;20276;-68
2021/10/22 01:01:44;;;;;;;1999.90;999.90;;;;;;;7.13;100.00;95851.00;5049251;28;20224;-68
2021/10/22 01:04:11;;;;;;;1999.90;999.90;;;;;;;6.93;100.00;95856.97;5049462;28;20669;-68
2021/10/22 01:06:41;;;;;;;1999.90;999.90;;;;;;;6.98;100.00;95858.75;5048930;28;20234;-68
2021/10/22 01:09:09;;;;;;;1999.90;999.90;;;;;;;7.04;100.00;95860.31;5048933;28;20197;-68
2021/10/22 01:11:39;;;;;;;1999.90;999.90;;;;;;;6.98;100.00;95859.53;5048829;28;20216;-68
2021/10/22 01:14:08;;;;;;;1999.90;999.90;;;;;;;6.92;100.00;95855.44;5048902;28;20258;-68
2021/10/22 01:16:38;;;;;;;1999.90;999.90;;;;;;;6.58;100.00;95855.19;5048808;28;20197;-68
2021/10/22 01:19:06;;;;;;;1999.90;999.90;;;;;;;6.50;100.00;95855.72;5048693;28;20205;-68
2021/10/22 01:21:35;;;;;;;1999.90;999.90;;;;;;;6.63;100.00;95857.00;5048876;28;20201;-68
2021/10/22 01:24:03;;;;;;;1999.90;999.90;;;;;;;6.79;100.00;95861.91;5048703;28;20268;-69
2021/10/22 01:26:31;;;;;;;1999.90;999.90;;;;;;;6.81;100.00;95856.47;5048951;28;20198;-69
2021/10/22 01:28:59;;;;;;;1999.90;999.90;;;;;;;6.73;100.00;95851.81;5048586;28;20229;-68
2021/10/22 01:31:26;;;;;;;1999.90;999.90;;;;;;;6.32;100.00;95851.84;5048665;28;20693;-69
2021/10/22 01:33:53;;;;;;;1999.90;999.90;;;;;;;6.22;100.00;95858.78;5048607;28;20201;-69
2021/10/22 01:36:20;;;;;;;1999.90;999.90;;;;;;;6.29;100.00;95856.72;5048523;28;20197;-68
2021/10/22 01:38:49;;;;;;;1999.90;999.90;;;;;;;6.21;100.00;95854.66;5048943;28;20204;-69
2021/10/22 01:41:16;;;;;;;1999.90;999.90;;;;;;;6.28;100.00;95855.16;5048527;28;20201;-68
2021/10/22 01:43:44;;;;;;;1999.90;999.90;;;;;;;6.16;100.00;95857.22;5048617;28;20718;-68
2021/10/22 01:46:11;;;;;;;1999.90;999.90;;;;;;;5.96;100.00;95860.56;5048568;28;20212;-68
2021/10/22 01:48:39;;;;;;;1999.90;999.90;;;;;;;5.99;100.00;95850.50;5048430;28;20190;-68
2021/10/22 01:51:06;;;;;;;1999.90;999.90;;;;;;;6.08;100.00;95847.44;5048327;28;20201;-68
2021/10/22 01:53:33;;;;;;;1999.90;999.90;;;;;;;6.14;100.00;95852.31;5048588;28;20612;-68
2021/10/22 01:56:01;;;;;;;1999.90;999.90;;;;;;;6.09;100.00;95861.84;5048585;28;20193;-69
2021/10/22 01:58:29;;;;;;;1999.90;999.90;;;;;;;6.05;100.00;95857.22;5048445;28;20625;-67
2021/10/22 02:00:56;;;;;;;1999.90;999.90;;;;;;;6.00;100.00;95859.78;5048090;28;20197;-69
2021/10/22 02:03:23;;;;;;;1999.90;999.90;;;;;;;6.05;100.00;95864.94;5048064;28;20277;-69
2021/10/22 02:05:50;;;;;;;1999.90;999.90;;;;;;;6.09;100.00;95859.28;5048423;28;20201;-69
2021/10/22 02:08:17;;;;;;;1999.90;999.90;;;;;;;6.10;100.00;95863.41;5048025;28;20212;-69
2021/10/22 02:10:44;;;;;;;1999.90;999.90;;;;;;;5.88;100.00;95861.81;5048292;28;20262;-69
2021/10/22 02:13:12;;;;;;;1999.90;999.90;;;;;;;5.92;100.00;95859.50;5041767;28;20238;-67
2021/10/22 02:15:39;;;;;;;1999.90;999.90;;;;;;;5.76;100.00;95861.25;5028089;28;20236;-69
2021/10/22 02:18:06;;;;;;;1999.90;999.90;;;;;;;5.51;100.00;95871.44;5028279;28;20681;-69
2021/10/22 02:20:38;;;;;;;1999.90;999.90;;;;;;;5.60;100.00;95867.38;5045398;28;20201;-69
2021/10/22 02:23:05;;;;;;;1999.90;999.90;;;;;;;5.58;100.00;95877.13;5047795;28;20210;-70
2021/10/22 02:25:32;;;;;;;1999.90;999.90;;;;;;;5.59;100.00;95870.97;5047711;28;20197;-69
2021/10/22 02:27:59;;;;;;;1999.90;999.90;;;;;;;5.55;100.00;95875.06;5048011;28;20214;-69
2021/10/22 02:30:27;;;;;;;1999.90;999.90;;;;;;;5.56;100.00;95874.06;5048284;28;20560;-70
2021/10/22 02:32:54;;;;;;;1999.90;999.90;;;;;;;5.58;100.00;95883.06;5047674;28;20249;-69
2021/10/22 02:35:21;;;;;;;1999.90;999.90;;;;;;;5.61;100.00;95886.97;5047639;28;20264;-70
2021/10/22 02:37:49;;;;;;;1999.90;999.90;;;;;;;5.53;100.00;95890.00;5047815;28;20201;-69
2021/10/22 02:40:17;;;;;;;1999.90;999.90;;;;;;;5.35;100.00;95885.28;5047610;28;20681;-69
2021/10/22 02:42:45;;;;;;;1999.90;999.90;;;;;;;5.34;100.00;95894.03;5047362;28;20605;-69
2021/10/22 02:45:13;;;;;;;1999.90;999.90;;;;;;;5.29;100.00;95894.00;5047795;28;20260;-69
2021/10/22 02:47:41;;;;;;;1999.90;999.90;;;;;;;5.35;100.00;95891.22;5047475;28;20230;-69
2021/10/22 02:50:09;;;;;;;1999.90;999.90;;;;;;;5.34;100.00;95906.91;5047131;28;20208;-69
2021/10/22 02:52:36;;;;;;;1999.90;999.90;;;;;;;5.36;100.00;95903.09;5047638;28;20194;-69
2021/10/22 02:55:04;;;;;;;1999.90;999.90;;;;;;;5.36;100.00;95900.50;5047627;28;20254;-69
2021/10/22 02:57:31;;;;;;;1999.90;999.90;;;;;;;5.41;100.00;95912.63;5047715;28;20201;-69
2021/10/22 02:59:58;;;;;;;1999.90;999.90;;;;;;;5.44;100.00;95912.91;5047217;28;20796;-69
2021/10/22 03:02:25;;;;;;;1999.90;999.90;;;;;;;5.41;100.00;95910.06;5047447;28;20268;-69
2021/10/22 03:04:53;;;;;;;1999.90;999.90;;;;;;;5.33;100.00;95910.53;5047549;28;20741;-70
2021/10/22 03:07:20;;;;;;;1999.90;999.90;;;;;;;5.34;100.00;95912.06;5047326;28;20276;-70
2021/10/22 03:09:47;;;;;;;1999.90;999.90;;;;;;;5.33;100.00;95911.28;5047473;28;20196;-69
2021/10/22 03:12:15;;;;;;;1999.90;999.90;;;;;;;5.36;100.00;95915.19;5047147;28;20209;-70
2021/10/22 03:14:42;;;;;;;1999.90;999.90;;;;;;;5.46;100.00;95916.03;5047353;28;20356;-69
2021/10/22 03:17:09;;;;;;;1999.90;999.90;;;;;;;5.44;100.00;95912.13;5047259;28;20197;-69
2021/10/22 03:19:36;;;;;;;1999.90;999.90;;;;;;;5.41;100.00;95908.25;5047126;28;20258;-70
2021/10/22 03:22:04;;;;;;;1999.90;999.90;;;;;;;5.46;100.00;95915.25;5047044;28;20201;-70
2021/10/22 03:24:31;;;;;;;1999.90;999.90;;;;;;;5.46;100.00;95912.66;5047155;28;20289;-69
2021/10/22 03:26:59;;;;;;;1999.90;999.90;;;;;;;5.34;100.00;95909.50;5046887;28;20204;-69
2021/10/22 03:29:26;;;;;;;1999.90;999.90;;;;;;;5.28;100.00;95916.41;5046613;28;20296;-69
2021/10/22 03:31:53;;;;;;;1999.90;999.90;;;;;;;5.19;100.00;95917.91;5046826;28;20201;-69
2021/10/22 03:34:20;;;;;;;1999.90;999.90;;;;;;;5.12;100.00;95915.56;5046835;28;20200;-69
2021/10/22 03:36:47;;;;;;;1999.90;999.90;;;;;;;5.14;100.00;95923.81;5046746;28;20205;-69
2021/10/22 03:39:15;;;;;;;1999.90;999.90;;;;;;;4.99;100.00;95920.34;5047122;28;20200;-70
2021/10/22 03:41:42;;;;;;;1999.90;999.90;;;;;;;5.03;100.00;95921.44;5046974;28;20219;-69
2021/10/22 03:44:09;;;;;;;1999.90;999.90;;;;;;;5.06;100.00;95923.50;5046558;28;20275;-69
2021/10/22 03:46:37;;;;;;;1999.90;999.90;;;;;;;5.03;100.00;95924.75;5046650;28;20208;-69
2021/10/22 03:49:04;;;;;;;1999.90;999.90;;;;;;;4.98;100.00;95924.72;5046882;28;20197;-69
2021/10/22 03:51:32;;;;;;;1999.90;999.90;;;;;;;4.98;100.00;95940.19;5046622;28;20259;-69
2021/10/22 03:53:59;;;;;;;1999.90;999.90;;;;;;;5.06;100.00;95939.75;5046606;28;20661;-69
2021/10/22 03:56:27;;;;;;;1999.90;999.90;;;;;;;5.09;100.00;95931.50;5046566;28;20305;-70
2021/10/22 03:58:54;;;;;;;1999.90;999.90;;;;;;;5.06;100.00;95934.59;5046802;28;20224;-70
2021/10/22 04:01:22;;;;;;;1999.90;999.90;;;;;;;5.02;100.00;95930.97;5047484;28;20201;-70
2021/10/22 04:03:49;;;;;;;1999.90;999.90;;;;;;;5.12;100.00;95931.03;5050092;28;20228;-70
2021/10/22 04:06:16;;;;;;;1999.90;999.90;;;;;;;5.23;100.00;95933.66;5037374;28;20749;-70
2021/10/22 04:08:43;;;;;;;1999.90;999.90;;;;;;;5.32;100.00;95939.91;5030369;28;20201;-69
2021/10/22 04:11:10;;;;;;;1999.90;999.90;;;;;;;5.38;100.00;95928.63;5029927;28;20304;-69
2021/10/22 04:13:38;;;;;;;1999.90;999.90;;;;;;;5.43;100.00;95931.22;5030007;28;20202;-70
2021/10/22 04:16:06;;;;;;;1999.90;999.90;;;;;;;5.35;100.00;95932.44;5029930;28;20223;-70
2021/10/22 04:18:33;;;;;;;1999.90;999.90;;;;;;;5.46;100.00;95931.50;5030447;28;20194;-70
2021/10/22 04:21:00;;;;;;;1999.90;999.90;;;;;;;5.47;100.00;95927.88;5049927;28;20202;-67
2021/10/22 04:23:27;;;;;;;1999.90;999.90;;;;;;;5.40;100.00;95929.13;5049983;28;20277;-69
2021/10/22 04:25:55;;;;;;;1999.90;999.90;;;;;;;5.36;100.00;95930.66;5049519;28;20284;-69
2021/10/22 04:28:22;;;;;;;1999.90;999.90;;;;;;;5.35;100.00;95932.44;5049580;28;20234;-68
2021/10/22 04:30:51;;;;;;;1999.90;999.90;;;;;;;5.26;100.00;95931.38;5049980;28;20190;-70
2021/10/22 04:33:18;;;;;;;1999.90;999.90;;;;;;;5.34;100.00;95928.31;5049672;28;20197;-69
2021/10/22 04:35:45;;;;;;;1999.90;999.90;;;;;;;5.39;100.00;95935.28;5049455;28;20199;-70
2021/10/22 04:40:56;;;;;;;1999.90;999.90;;;;;;;5.34;100.00;95928.31;5049451;28;20188;-70
2021/10/22 04:43:24;;;;;;;1999.90;999.90;;;;;;;5.32;100.00;95934.75;5049260;28;20224;-71
2021/10/22 04:45:54;;;;;;;1999.90;999.90;;;;;;;5.39;100.00;95930.13;5049293;28;20657;-69
2021/10/22 04:48:21;;;;;;;1999.90;999.90;;;;;;;5.36;100.00;95928.84;5049389;28;20249;-70
2021/10/22 04:50:51;;;;;;;1999.90;999.90;;;;;;;5.33;100.00;95934.47;5049245;28;20208;-70
2021/10/22 04:53:22;;;;;;;1999.90;999.90;;;;;;;5.30;100.00;95932.41;5049256;28;20257;-70
2021/10/22 04:55:50;;;;;;;1999.90;999.90;;;;;;;5.39;100.00;95936.06;5049455;28;20183;-69
2021/10/22 04:58:17;;;;;;;1999.90;999.90;;;;;;;5.25;100.00;95937.53;5049128;28;20240;-70
2021/10/22 05:00:44;;;;;;;1999.90;999.90;;;;;;;5.30;100.00;95935.00;5049052;28;20684;-69
2021/10/22 05:03:13;;;;;;;1999.90;999.90;;;;;;;5.27;100.00;95940.66;5048895;28;20292;-71
2021/10/22 05:05:40;;;;;;;1999.90;999.90;;;;;;;5.38;100.00;95933.75;5048950;28;20570;-69
2021/10/22 05:08:07;;;;;;;1999.90;999.90;;;;;;;5.12;100.00;95931.03;5049249;28;20205;-69
2021/10/22 05:10:34;;;;;;;1999.90;999.90;;;;;;;4.95;100.00;95938.09;5048915;28;20208;-69
2021/10/22 05:13:01;;;;;;;1999.90;999.90;;;;;;;4.92;100.00;95943.75;5048471;28;20197;-70
2021/10/22 05:15:29;;;;;;;1999.90;999.90;;;;;;;4.99;100.00;95946.88;5048923;28;20201;-69
2021/10/22 05:17:56;;;;;;;1999.90;999.90;;;;;;;4.94;100.00;95944.28;5048749;28;20201;-68
2021/10/22 05:20:25;;;;;;;1999.90;999.90;;;;;;;5.05;100.00;95948.47;5049037;28;20205;-69
2021/10/22 05:22:52;;;;;;;1999.90;999.90;;;;;;;5.13;100.00;95957.56;5049011;28;20193;-70
2021/10/22 05:25:19;;;;;;;1999.90;999.90;;;;;;;5.05;100.00;95961.34;5048674;28;20221;-70
2021/10/22 05:27:46;;;;;;;1999.90;999.90;;;;;;;5.14;100.00;95964.25;5048621;28;20673;-70
2021/10/22 05:30:14;;;;;;;1999.90;999.90;;;;;;;5.20;100.00;95964.03;5048572;28;20245;-70
2021/10/22 05:32:43;;;;;;;1999.90;999.90;;;;;;;5.31;100.00;95975.19;5048553;28;20201;-70
2021/10/22 05:35:11;;;;;;;1999.90;999.90;;;;;;;5.37;100.00;95976.00;5048496;28;20236;-69
2021/10/22 05:37:40;;;;;;;1999.90;999.90;;;;;;;5.25;100.00;95983.13;5048706;28;20261;-69
2021/10/22 05:40:08;;;;;;;1999.90;999.90;;;;;;;5.23;100.00;95985.19;5048380;28;20562;-68
2021/10/22 05:42:36;;;;;;;1999.90;999.90;;;;;;;5.17;100.00;95989.53;5048411;28;20197;-68
2021/10/22 05:45:03;;;;;;;1999.90;999.90;;;;;;;5.30;100.00;95990.91;5048558;28;20292;-69
2021/10/22 05:47:30;;;;;;;1999.90;999.90;;;;;;;5.43;100.00;95988.66;5048345;28;20197;-70
2021/10/22 05:49:58;;;;;;;1999.90;999.90;;;;;;;5.46;100.00;95987.41;5048646;28;20257;-70
2021/10/22 05:52:25;;;;;;;1999.90;999.90;;;;;;;5.66;100.00;95989.31;5048558;28;20277;-70
2021/10/22 05:54:54;;;;;;;1999.90;999.90;;;;;;;5.77;100.00;95991.72;5048516;28;20197;-70
2021/10/22 05:57:21;;;;;;;1999.90;999.90;;;;;;;5.82;100.00;95996.91;5035291;28;20668;-70
2021/10/22 05:59:48;;;;;;;1999.90;999.90;;;;;;;5.98;100.00;96003.69;5028675;28;20250;-70
2021/10/22 06:02:15;;;;;;;1999.90;999.90;;;;;;;6.18;100.00;96002.22;5028263;28;20627;-69
2021/10/22 06:04:42;;;;;;;1999.90;999.90;;;;;;;6.35;100.00;96000.25;5028139;28;20279;-69
2021/10/22 06:07:09;;;;;;;1999.90;999.90;;;;;;;6.53;100.00;96002.34;5028461;28;20322;-69
2021/10/22 06:09:37;;;;;;;1999.90;999.90;;;;;;;6.76;100.00;96014.03;5028211;28;20208;-68
2021/10/22 06:12:06;;;;;;;1999.90;999.90;;;;;;;7.05;100.00;96014.31;5028390;28;20275;-69
2021/10/22 06:14:33;;;;;;;1999.90;999.90;;;;;;;7.25;100.00;96015.09;5028416;28;20194;-68
2021/10/22 06:17:01;;;;;;;1999.90;999.90;;;;;;;7.38;100.00;96023.34;5028142;28;20407;-69
2021/10/22 06:19:33;;;;;;;1999.90;999.90;;;;;;;7.54;100.00;96024.91;5036278;28;20212;-69
2021/10/22 06:22:16;;;;;;;1999.90;999.90;;;;;;;7.63;100.00;96029.28;5047718;28;20285;-69
2021/10/22 06:24:43;;;;;;;1999.90;999.90;;;;;;;7.91;100.00;96034.94;5047083;28;20300;-68
2021/10/22 06:27:12;;;;;;;1999.90;999.90;;;;;;;8.08;100.00;96038.00;5047799;28;20697;-71
2021/10/22 06:29:39;;;;;;;1999.90;999.90;;;;;;;8.31;100.00;96045.22;5047628;28;20304;-70
2021/10/22 06:32:07;;;;;;;1999.90;999.90;;;;;;;8.41;100.00;96037.41;5047697;28;20921;-69
2021/10/22 06:34:34;;;;;;;1999.90;999.90;;;;;;;8.73;100.00;96049.16;5047686;28;20197;-68
2021/10/22 06:37:01;;;;;;;1999.90;999.90;;;;;;;9.06;100.00;96044.06;5047590;28;20637;-68
2021/10/22 06:39:28;;;;;;;1999.90;999.90;;;;;;;9.19;100.00;96041.88;5047807;28;20645;-68
2021/10/22 06:41:55;;;;;;;1999.90;999.90;;;;;;;9.13;100.00;96043.72;5047796;28;20201;-68
2021/10/22 06:44:27;;;;;;;1999.90;999.90;;;;;;;9.32;100.00;96047.22;5047435;28;20306;-70
2021/10/22 06:46:55;;;;;;;1999.90;999.90;;;;;;;9.55;100.00;96044.97;5047531;28;20615;-68
2021/10/22 06:49:22;;;;;;;1999.90;999.90;;;;;;;9.70;100.00;96050.81;5047643;28;20211;-69
2021/10/22 06:51:50;;;;;;;1999.90;999.90;;;;;;;9.81;100.00;96046.31;5047461;28;20689;-69
2021/10/22 06:54:17;;;;;;;1999.90;999.90;;;;;;;10.12;100.00;96050.13;5047510;28;20204;-68
2021/10/22 06:56:44;;;;;;;1999.90;999.90;;;;;;;10.33;100.00;96046.28;5047679;28;20254;-68
2021/10/22 06:59:12;;;;;;;1999.90;999.90;;;;;;;10.56;100.00;96049.16;5047643;28;20201;-68
2021/10/22 07:01:40;;;;;;;1999.90;999.90;;;;;;;10.86;98.64;96053.94;5047326;28;20201;-68
2021/10/22 07:04:09;;;;;;;1999.90;999.90;;;;;;;10.95;97.77;96061.91;5047165;28;20228;-68
2021/10/22 07:09:20;;;;;;;1999.90;999.90;;;;;;;10.90;97.67;96065.34;5047292;28;20188;-67
2021/10/22 07:11:47;;;;;;;1999.90;999.90;;;;;;;11.30;96.79;96058.78;5047350;28;20281;-68
2021/10/22 07:14:15;;;;;;;1999.90;999.90;;;;;;;11.50;94.43;96058.50;5047301;28;20201;-68
2021/10/22 07:16:44;;;;;;;1999.90;999.90;;;;;;;11.62;93.66;96060.63;5046960;28;20201;-68
2021/10/22 07:19:11;;;;;;;1999.90;999.90;;;;;;;11.74;92.95;96063.59;5046903;28;20240;-68
2021/10/22 07:21:43;;;;;;;1999.90;999.90;;;;;;;11.70;92.76;96065.19;5047257;28;20201;-68
2021/10/22 07:24:16;;;;;;;1999.90;999.90;;;;;;;11.60;93.77;96067.97;5047162;28;20213;-68
2021/10/22 07:26:43;;;;;;;1999.90;999.90;;;;;;;11.77;94.07;96065.59;5047038;28;20196;-68
2021/10/22 07:29:10;;;;;;;1999.90;999.90;;;;;;;12.03;93.02;96058.91;5046849;28;20262;-68
2021/10/22 07:31:37;;;;;;;1999.90;999.90;;;;;;;11.88;93.04;96066.22;5046822;28;20197;-67
2021/10/22 07:34:07;;;;;;;1999.90;999.90;;;;;;;12.08;92.09;96061.41;5046728;28;20287;-68
2021/10/22 07:36:35;;;;;;;1999.90;999.90;;;;;;;12.46;91.55;96058.63;5049849;28;20637;-68
2021/10/22 07:39:02;;;;;;;1999.90;999.90;;;;;;;12.92;88.75;96061.84;5050641;28;20201;-68
2021/10/22 07:41:29;;;;;;;1999.90;999.90;;;;;;;13.16;86.33;96072.06;5050525;28;20205;-67
2021/10/22 07:43:56;;;;;;;1999.90;999.90;;;;;;;13.18;86.94;96080.38;5050060;28;20200;-68
2021/10/22 07:46:24;;;;;;;1999.90;999.90;;;;;;;13.01;87.48;96072.34;5050207;28;20299;-68
2021/10/22 07:48:51;;;;;;;1999.90;999.90;;;;;;;13.25;87.63;96074.75;5050455;28;20194;-68
2021/10/22 07:51:19;;;;;;;1999.90;999.90;;;;;;;13.58;86.69;96073.44;5045584;28;20710;-67
2021/10/22 07:53:46;;;;;;;1999.90;999.90;;;;;;;13.80;87.17;96075.25;5030232;28;20958;-67
2021/10/22 07:56:13;;;;;;;1999.90;999.90;;;;;;;13.92;82.17;96074.72;5030524;28;20281;-68
2021/10/22 07:58:40;;;;;;;1999.90;999.90;;;;;;;14.09;85.54;96072.19;5030151;28;20685;-68
2021/10/22 08:01:07;;;;;;;1999.90;999.90;;;;;;;14.12;82.38;96076.81;5030163;28;20235;-67
2021/10/22 08:03:34;;;;;;;1999.90;999.90;;;;;;;14.17;83.17;96069.63;5030431;28;20201;-66
2021/10/22 08:06:02;;;;;;;1999.90;999.90;;;;;;;14.44;80.25;96073.13;5030223;28;20268;-66
2021/10/22 08:08:30;;;;;;;1999.90;999.90;;;;;;;14.73;81.05;96070.75;5030251;28;20206;-67
2021/10/22 08:10:58;;;;;;;1999.90;999.90;;;;;;;14.91;80.06;96072.31;5030259;28;20198;-66
2021/10/22 08:13:25;;;;;;;1999.90;999.90;;;;;;;14.98;80.28;96071.88;5030242;28;20193;-67
2021/10/22 08:15:52;;;;;;;1999.90;999.90;;;;;;;14.98;78.00;96066.63;5030111;28;20198;-66
2021/10/22 08:18:19;;;;;;;1999.90;999.90;;;;;;;14.92;77.96;96065.22;5030109;28;20274;-67
2021/10/22 08:20:52;;;;;;;1999.90;999.90;;;;;;;14.93;78.67;96067.56;5048704;28;20257;-67
2021/10/22 08:23:19;;;;;;;1999.90;999.90;;;;;;;14.96;79.73;96069.53;5050037;28;20185;-67
2021/10/22 08:25:48;;;;;;;1999.90;999.90;;;;;;;14.99;77.19;96070.78;5049882;28;20221;-67
2021/10/22 08:28:16;;;;;;;1999.90;999.90;;;;;;;14.93;78.34;96054.47;5049833;28;20193;-67
2021/10/22 08:30:43;;;;;;;1999.90;999.90;;;;;;;14.90;80.54;96060.28;5049874;28;20185;-68
2021/10/22 08:33:11;;;;;;;1999.90;999.90;;;;;;;15.12;80.43;96058.63;5049598;28;20208;-67
2021/10/22 08:35:39;;;;;;;1999.90;999.90;;;;;;;15.23;78.77;96060.63;5049499;28;20197;-67
2021/10/22 08:38:09;;;;;;;1999.90;999.90;;;;;;;15.12;80.11;96061.25;5049842;28;20196;-67
2021/10/22 08:40:36;;;;;;;1999.90;999.90;;;;;;;15.26;79.24;96052.16;5049686;28;20201;-68
2021/10/22 08:43:05;;;;;;;1999.90;999.90;;;;;;;15.21;79.97;96059.38;5049592;28;20201;-68
2021/10/22 08:45:33;;;;;;;1999.90;999.90;;;;;;;15.20;80.00;96050.75;5049319;28;20229;-68
2021/10/22 08:48:02;;;;;;;1999.90;999.90;;;;;;;15.39;80.36;96056.44;5048621;28;20201;-68
2021/10/22 08:50:29;;;;;;;1999.90;999.90;;;;;;;15.22;79.66;96064.31;5049540;28;20197;-68
2021/10/22 08:52:56;;;;;;;1999.90;999.90;;;;;;;14.99;80.51;96058.44;5049504;28;20288;-68
2021/10/22 08:55:23;;;;;;;1999.90;999.90;;;;;;;15.02;80.65;96057.09;5049241;28;20283;-68
2021/10/22 08:57:51;;;;;;;1999.90;999.90;;;;;;;15.18;80.59;96049.53;5049164;28;20207;-68
2021/10/22 09:00:21;;;;;;;1999.90;999.90;;;;;;;15.38;79.17;96049.69;5049439;28;20201;-68
2021/10/22 09:02:49;;;;;;;1999.90;999.90;;;;;;;15.47;78.93;96057.53;5049695;28;20193;-68
2021/10/22 09:05:17;;;;;;;1999.90;999.90;;;;;;;15.60;76.30;96047.97;5049185;28;20765;-68
2021/10/22 09:07:46;;;;;;;1999.90;999.90;;;;;;;15.74;77.24;96040.75;5048963;28;20244;-68
2021/10/22 09:10:17;;;;;;;1999.90;999.90;;;;;;;16.03;75.15;96046.03;5049294;28;20194;-67
2021/10/22 09:12:47;;;;;;;1999.90;999.90;;;;;;;15.85;77.16;96045.31;5049007;28;20185;-67
2021/10/22 09:15:15;;;;;;;1999.90;999.90;;;;;;;16.07;76.49;96046.19;5049202;28;20245;-69
2021/10/22 09:17:45;;;;;;;1999.90;999.90;;;;;;;16.15;77.73;96037.50;5048684;28;20316;-67
2021/10/22 09:20:14;;;;;;;1999.90;999.90;;;;;;;16.06;77.43;96034.91;5048809;28;20210;-68
2021/10/22 09:22:48;;;;;;;1999.90;999.90;;;;;;;16.01;77.16;96040.34;5048764;28;20213;-67
2021/10/22 09:25:19;;;;;;;1999.90;999.90;;;;;;;16.04;77.81;96039.69;5048241;28;20681;-67
2021/10/22 09:27:49;;;;;;;1999.90;999.90;;;;;;;16.12;77.01;96041.53;5048308;28;20233;-67
2021/10/22 09:30:45;;;;;;;1999.90;999.90;;;;;;;15.77;77.90;96033.00;5048351;28;20236;-67
2021/10/22 09:33:18;;;;;;;1999.90;999.90;;;;;;;15.92;79.08;96036.97;5014027;28;20580;-68
2021/10/22 09:35:47;;;;;;;1999.90;999.90;;;;;;;16.03;78.20;96040.03;5048494;28;20192;-69
2021/10/22 09:38:18;;;;;;;1999.90;999.90;;;;;;;16.31;77.30;96036.66;5048393;28;20200;-68
2021/10/22 09:40:47;;;;;;;1999.90;999.90;;;;;;;16.31;76.81;96041.91;5048734;28;20217;-68
2021/10/22 09:43:18;;;;;;;1999.90;999.90;;;;;;;16.56;76.61;96040.25;5048648;28;20223;-68
2021/10/22 09:45:47;;;;;;;1999.90;999.90;;;;;;;16.80;75.69;96031.78;5045249;28;20210;-69
2021/10/22 09:48:25;;;;;;;1999.90;999.90;;;;;;;17.10;76.08;96033.25;5048558;28;20684;-67
2021/10/22 09:50:53;;;;;;;1999.90;999.90;;;;;;;17.27;75.41;96034.22;5048398;28;20224;-67
2021/10/22 09:53:25;;;;;;;1999.90;999.90;;;;;;;17.38;73.92;96030.13;5048232;28;20663;-67
2021/10/22 09:56:04;;;;;;;1999.90;999.90;;;;;;;17.66;70.99;96022.44;5048336;28;20196;-66
2021/10/22 09:58:31;;;;;;;1999.90;999.90;;;;;;;17.77;71.92;96026.19;5047323;28;20242;-67
2021/10/22 10:01:12;;;;;;;1999.90;999.90;;;;;;;17.66;72.29;96017.19;5048512;28;20582;-67
2021/10/22 10:03:42;;;;;;;1999.90;999.90;;;;;;;17.66;71.34;96017.97;5048439;28;20276;-67
2021/10/22 10:06:11;;;;;;;1999.90;999.90;;;;;;;17.73;71.73;96012.19;5048369;28;20229;-67
2021/10/22 10:08:40;;;;;;;1999.90;999.90;;;;;;;17.84;71.19;96006.16;5048034;28;20212;-67
2021/10/22 10:11:09;;;;;;;1999.90;999.90;;;;;;;18.05;70.02;96008.69;5048429;28;20828;-67
2021/10/22 10:13:36;;;;;;;1999.90;999.90;;;;;;;18.17;69.61;96002.69;5048209;28;20239;-67
2021/10/22 10:16:04;;;;;;;1999.90;999.90;;;;;;;18.37;70.55;95989.41;5048289;28;20228;-67
2021/10/22 10:18:38;;;;;;;1999.90;999.90;;;;;;;18.49;70.94;95996.53;5047799;28;20201;-68
2021/10/22 10:21:10;;;;;;;1999.90;999.90;;;;;;;18.79;69.23;95989.16;5047253;28;20189;-66
2021/10/22 10:23:41;;;;;;;1999.90;999.90;;;;;;;18.97;67.48;95985.16;5046167;28;20689;-67
2021/10/22 10:26:29;;;;;;;1999.90;999.90;;;;;;;19.12;69.12;95981.81;5047727;28;20306;-66
2021/10/22 10:28:58;;;;;;;1999.90;999.90;;;;;;;19.05;69.56;95983.47;5047937;28;20233;-67
2021/10/22 10:31:30;;;;;;;1999.90;999.90;;;;;;;19.10;66.18;95983.25;5047731;28;20205;-67
2021/10/22 10:33:58;;;;;;;1999.90;999.90;;;;;;;19.12;67.51;95984.47;5047928;28;20204;-66
2021/10/22 10:36:46;;;;;;;1999.90;999.90;;;;;;;18.76;67.90;95976.66;5047598;28;20306;-67
2021/10/22 10:39:13;;;;;;;1999.90;999.90;;;;;;;18.56;68.52;95982.84;5048011;28;20328;-66
2021/10/22 10:41:40;;;;;;;1999.90;999.90;;;;;;;18.59;69.41;95974.28;5047511;28;20669;-66
2021/10/22 10:44:42;;;;;;;1999.90;999.90;;;;;;;18.56;70.95;95974.94;5047813;28;20304;-67
2021/10/22 10:47:41;;;;;;;1999.90;999.90;;;;;;;18.60;71.30;95960.78;5044702;28;20321;-67
2021/10/22 10:50:08;;;;;;;1999.90;999.90;;;;;;;18.73;69.61;95958.91;5047723;28;20201;-67
2021/10/22 10:52:54;;;;;;;1999.90;999.90;;;;;;;18.79;68.08;95957.53;5047436;28;20201;-67
2021/10/22 10:55:28;;;;;;;1999.90;999.90;;;;;;;18.84;69.62;95955.44;5047675;28;20189;-67
2021/10/22 10:58:18;;;;;;;1999.90;999.90;;;;;;;18.81;69.12;95950.84;5047322;28;20563;-67
2021/10/22 11:00:46;;;;;;;1999.90;999.90;;;;;;;18.95;69.00;95954.97;5047664;28;20612;-67
2021/10/22 11:03:18;;;;;;;1999.90;999.90;;;;;;;19.03;68.70;95943.53;5047390;28;20293;-68
2021/10/22 11:06:03;;;;;;;1999.90;999.90;;;;;;;19.12;65.82;95938.91;5047513;28;20248;-68